Time;durP1;ratioP1;P1;durP2;ratioP2;P2;SDS_P1;SDS_P2;PMS_P1;PMS_P2;Temp;Humidity;BMP_temperature;BMP_pressure;BME280_temperature;BME280_humidity;BME280_pressure;Samples;Min_cycle;Max_cycle;Signal;HPM_P1;HPM_P2
2022/03/16 00:01:01;;;;;;;23.08;13.73;;;;;;;8.90;50.82;100536.81;4950608;28;106205;-77
2022/03/16 00:03:26;;;;;;;21.92;13.30;;;;;;;8.92;50.42;100534.00;4950174;28;106783;-76
2022/03/16 00:05:53;;;;;;;22.77;14.05;;;;;;;8.92;50.90;100534.81;4949169;28;106064;-72
2022/03/16 00:08:19;;;;;;;26.70;13.88;;;;;;;8.91;51.23;100535.81;4951070;28;105865;-77
2022/03/16 00:10:45;;;;;;;24.98;13.52;;;;;;;8.90;51.41;100535.94;4950508;28;106335;-79
2022/03/16 00:13:10;;;;;;;22.75;13.75;;;;;;;8.89;51.32;100536.97;4950206;28;106049;-76
2022/03/16 00:15:35;;;;;;;27.40;14.02;;;;;;;8.88;51.86;100549.38;4950016;28;106045;-75
2022/03/16 00:18:01;;;;;;;22.02;14.35;;;;;;;8.88;51.41;100545.91;4950841;28;106215;-78
2022/03/16 00:20:26;;;;;;;26.50;16.48;;;;;;;8.88;51.36;100553.88;4950299;28;105881;-78
2022/03/16 00:22:51;;;;;;;27.80;14.75;;;;;;;8.86;51.65;100555.84;4948736;28;106146;-73
2022/03/16 00:25:17;;;;;;;24.60;14.82;;;;;;;8.84;51.74;100542.69;4948810;28;106446;-76
2022/03/16 00:27:42;;;;;;;25.42;15.13;;;;;;;8.83;51.43;100537.53;4951217;28;105938;-77
2022/03/16 00:30:08;;;;;;;26.15;14.98;;;;;;;8.84;52.26;100541.88;4950543;28;106182;-77
2022/03/16 00:32:33;;;;;;;28.80;15.80;;;;;;;8.84;51.45;100539.22;4949737;28;106107;-79
2022/03/16 00:34:59;;;;;;;26.52;16.58;;;;;;;8.83;52.34;100546.38;4950237;28;106019;-82
2022/03/16 00:37:24;;;;;;;26.67;15.55;;;;;;;8.81;51.91;100546.50;4950942;28;105995;-83
2022/03/16 00:39:49;;;;;;;27.33;14.73;;;;;;;8.75;52.33;100539.13;4949028;28;106442;-82
2022/03/16 00:42:15;;;;;;;24.45;15.07;;;;;;;8.74;52.04;100540.13;4949127;28;105998;-78
2022/03/16 00:44:40;;;;;;;25.25;14.85;;;;;;;8.73;52.46;100543.75;4949728;28;106935;-79
2022/03/16 00:47:06;;;;;;;27.25;15.18;;;;;;;8.73;52.41;100553.56;4950450;28;106017;-81
2022/03/16 00:49:32;;;;;;;26.77;14.07;;;;;;;8.73;52.51;100549.06;4950446;28;106055;-80
2022/03/16 00:51:59;;;;;;;25.00;14.50;;;;;;;8.71;52.70;100540.44;4950156;28;106208;-81
2022/03/16 00:54:24;;;;;;;30.17;15.75;;;;;;;8.70;52.30;100552.03;4952001;28;105682;-82
2022/03/16 00:56:49;;;;;;;24.40;15.20;;;;;;;8.71;52.55;100558.19;4952290;28;106011;-79
2022/03/16 00:59:14;;;;;;;24.55;16.13;;;;;;;8.70;52.79;100551.19;4950803;28;106278;-80
2022/03/16 01:01:40;;;;;;;29.23;15.52;;;;;;;8.67;53.43;100555.00;4948341;28;106815;-77
2022/03/16 01:04:05;;;;;;;24.08;15.27;;;;;;;8.61;53.56;100555.56;4949526;28;105947;-80
2022/03/16 01:06:30;;;;;;;25.35;15.27;;;;;;;8.55;52.97;100556.19;4950349;28;105885;-79
2022/03/16 01:08:56;;;;;;;28.63;17.05;;;;;;;8.51;53.34;100557.47;4948546;28;105971;-76
2022/03/16 01:11:21;;;;;;;27.65;16.50;;;;;;;8.46;53.42;100556.06;4947750;28;107527;-79
2022/03/16 01:13:47;;;;;;;23.95;15.70;;;;;;;8.45;53.99;100546.44;4949527;28;105974;-79
2022/03/16 01:16:12;;;;;;;26.50;16.88;;;;;;;8.44;53.71;100547.38;4949900;28;105954;-79
2022/03/16 01:18:38;;;;;;;29.90;16.25;;;;;;;8.43;53.49;100545.72;4948516;28;106890;-78
2022/03/16 01:21:07;;;;;;;27.67;16.38;;;;;;;8.44;54.45;100549.22;4949492;28;107208;-76
2022/03/16 01:23:36;;;;;;;27.50;16.60;;;;;;;8.42;53.99;100549.38;4949213;28;106329;-73
2022/03/16 01:26:03;;;;;;;26.17;17.25;;;;;;;8.43;54.30;100550.19;4949940;28;106517;-81
2022/03/16 01:28:29;;;;;;;26.55;17.13;;;;;;;8.42;54.30;100554.66;4948574;28;106049;-78
2022/03/16 01:30:54;;;;;;;29.00;17.45;;;;;;;8.39;55.01;100554.13;4947936;28;108509;-81
2022/03/16 01:33:20;;;;;;;25.30;16.23;;;;;;;8.37;55.26;100561.41;4947815;28;108657;-76
2022/03/16 01:35:45;;;;;;;28.55;16.10;;;;;;;8.33;55.04;100557.38;4950081;28;106013;-77
2022/03/16 01:38:10;;;;;;;27.88;17.35;;;;;;;8.24;55.11;100557.28;4949387;28;106183;-79
2022/03/16 01:40:36;;;;;;;27.88;17.75;;;;;;;8.16;55.31;100554.50;4949431;28;105910;-79
2022/03/16 01:43:01;;;;;;;31.27;16.98;;;;;;;8.04;55.44;100561.81;4949745;28;106440;-80
2022/03/16 01:45:26;;;;;;;25.70;16.67;;;;;;;7.94;55.92;100567.16;4950522;28;105872;-76
2022/03/16 01:47:52;;;;;;;26.90;17.50;;;;;;;7.81;56.32;100565.78;4949337;28;106102;-79
2022/03/16 01:50:17;;;;;;;23.10;15.95;;;;;;;7.69;56.42;100567.75;4948767;28;105821;-78
2022/03/16 01:52:43;;;;;;;23.13;15.70;;;;;;;7.59;57.18;100563.28;4947876;28;107382;-76
2022/03/16 01:55:09;;;;;;;27.48;20.50;;;;;;;7.50;58.08;100564.13;4949632;28;105672;-75
2022/03/16 01:57:35;;;;;;;34.28;23.25;;;;;;;7.37;57.98;100569.75;4949119;28;106104;-80
2022/03/16 02:00:04;;;;;;;31.48;23.08;;;;;;;7.24;58.69;100577.13;4948341;28;108533;-76
2022/03/16 02:02:29;;;;;;;30.70;23.73;;;;;;;7.12;59.09;100576.41;4948295;28;106648;-71
2022/03/16 02:04:55;;;;;;;24.73;18.98;;;;;;;7.02;59.44;100584.34;4948894;28;106168;-77
2022/03/16 02:07:20;;;;;;;27.17;20.67;;;;;;;6.93;59.91;100579.91;4948872;28;106157;-70
2022/03/16 02:09:45;;;;;;;25.55;19.10;;;;;;;6.88;60.18;100595.34;4948460;28;107717;-75
2022/03/16 02:12:12;;;;;;;28.08;20.00;;;;;;;6.83;60.65;100579.03;4948808;28;105743;-80
2022/03/16 02:14:37;;;;;;;28.75;19.70;;;;;;;6.78;60.65;100592.69;4949397;28;105989;-80
2022/03/16 02:17:03;;;;;;;27.80;18.83;;;;;;;6.74;61.50;100594.75;4948112;28;106223;-84
2022/03/16 02:19:29;;;;;;;30.77;23.50;;;;;;;6.71;61.72;100604.78;4948237;28;109219;-84
2022/03/16 02:21:57;;;;;;;33.05;22.90;;;;;;;6.69;61.62;100599.63;4948917;28;106294;-78
2022/03/16 02:24:29;;;;;;;31.77;25.20;;;;;;;6.68;61.64;100605.88;4949158;28;105832;-77
2022/03/16 02:26:55;;;;;;;33.97;25.40;;;;;;;6.70;61.91;100606.59;4948688;28;105758;-80
2022/03/16 02:29:21;;;;;;;31.27;24.48;;;;;;;6.71;62.23;100610.94;4950348;28;105920;-81
2022/03/16 02:31:46;;;;;;;32.30;24.08;;;;;;;6.72;61.83;100617.03;4951882;28;108203;-75
2022/03/16 02:34:11;;;;;;;24.67;20.10;;;;;;;6.72;62.37;100620.53;4952641;28;105798;-75
2022/03/16 02:36:37;;;;;;;25.90;19.90;;;;;;;6.72;62.24;100623.16;4951757;28;106141;-79
2022/03/16 02:39:02;;;;;;;27.67;19.83;;;;;;;6.71;62.71;100626.81;4951724;28;108145;-74
2022/03/16 02:41:27;;;;;;;23.42;18.42;;;;;;;6.73;62.91;100634.63;4951280;28;106419;-80
2022/03/16 02:43:53;;;;;;;25.08;19.23;;;;;;;6.74;62.47;100631.00;4952773;28;105881;-79
2022/03/16 02:46:18;;;;;;;24.95;18.17;;;;;;;6.76;63.35;100635.16;4953285;28;105953;-77
2022/03/16 02:48:44;;;;;;;26.52;19.10;;;;;;;6.78;63.27;100645.66;4952199;28;111297;-78
2022/03/16 02:51:10;;;;;;;26.98;17.67;;;;;;;6.78;63.28;100643.81;4952246;28;106024;-79
2022/03/16 02:53:35;;;;;;;20.77;17.92;;;;;;;6.79;63.46;100644.66;4952398;28;105885;-75
2022/03/16 02:56:00;;;;;;;23.73;18.13;;;;;;;6.77;63.55;100650.09;4951365;28;109711;-77
2022/03/16 02:58:26;;;;;;;22.92;18.27;;;;;;;6.72;63.60;100649.66;4951549;28;106216;-80
2022/03/16 03:00:51;;;;;;;25.25;18.83;;;;;;;6.70;63.67;100656.06;4950299;28;106230;-79
2022/03/16 03:03:17;;;;;;;23.80;18.60;;;;;;;6.68;64.22;100656.19;4952526;28;106086;-76
2022/03/16 03:05:43;;;;;;;24.30;18.15;;;;;;;6.67;64.27;100653.66;4951937;28;106216;-76
2022/03/16 03:08:09;;;;;;;23.70;17.20;;;;;;;6.67;64.61;100656.31;4951701;28;105794;-79
2022/03/16 03:10:34;;;;;;;23.52;17.17;;;;;;;6.63;64.25;100662.84;4950905;28;107687;-75
2022/03/16 03:13:00;;;;;;;21.75;16.88;;;;;;;6.59;64.27;100657.84;4953078;28;105954;-78
2022/03/16 03:15:25;;;;;;;23.02;18.05;;;;;;;6.58;64.96;100658.78;4952080;28;105842;-78
2022/03/16 03:17:50;;;;;;;24.85;18.85;;;;;;;6.60;64.77;100663.94;4951221;28;106559;-83
2022/03/16 03:20:16;;;;;;;24.20;17.38;;;;;;;6.58;65.01;100673.84;4952704;28;105976;-81
2022/03/16 03:22:41;;;;;;;19.75;17.05;;;;;;;6.55;65.00;100680.25;4952012;28;105909;-75
2022/03/16 03:25:13;;;;;;;22.52;16.38;;;;;;;6.50;65.30;100686.91;4952154;28;106020;-78
2022/03/16 03:27:39;;;;;;;23.17;17.40;;;;;;;6.50;65.40;100682.44;4950821;28;107598;-81
2022/03/16 03:30:06;;;;;;;22.13;16.50;;;;;;;6.50;65.46;100677.16;4949915;28;108875;-82
2022/03/16 03:32:31;;;;;;;23.10;16.45;;;;;;;6.51;65.37;100688.59;4934038;28;105915;-79
2022/03/16 03:34:57;;;;;;;21.98;15.88;;;;;;;6.49;65.60;100685.22;4952231;28;106245;-85
2022/03/16 03:37:25;;;;;;;22.70;17.55;;;;;;;6.51;65.90;100694.72;4951207;28;106253;-81
2022/03/16 03:39:51;;;;;;;19.42;16.02;;;;;;;6.53;66.24;100691.94;4950995;28;106011;-82
2022/03/16 03:42:16;;;;;;;21.58;17.15;;;;;;;6.50;65.77;100681.63;4951335;28;106038;-75
2022/03/16 03:44:42;;;;;;;22.27;16.20;;;;;;;6.48;65.95;100692.34;4950935;28;106302;-78
2022/03/16 03:47:08;;;;;;;20.13;16.45;;;;;;;6.46;65.79;100690.78;4950529;28;105930;-74
2022/03/16 03:49:36;;;;;;;18.73;15.05;;;;;;;6.41;66.11;100693.81;4951162;28;106148;-82
2022/03/16 03:52:03;;;;;;;21.42;15.88;;;;;;;6.38;66.17;100694.94;4949679;28;106016;-80
2022/03/16 03:54:28;;;;;;;19.50;16.08;;;;;;;6.35;66.35;100700.47;4950922;28;106035;-75
2022/03/16 03:56:54;;;;;;;23.00;15.57;;;;;;;6.28;66.33;100691.38;4951485;28;106010;-79
2022/03/16 03:59:20;;;;;;;22.20;15.55;;;;;;;6.28;66.93;100704.59;4950812;28;108842;-82
2022/03/16 04:01:46;;;;;;;21.17;16.27;;;;;;;6.26;66.70;100702.09;4951763;28;105970;-78
2022/03/16 04:04:11;;;;;;;22.85;16.55;;;;;;;6.21;66.50;100703.47;4952194;28;105886;-79
2022/03/16 04:06:36;;;;;;;20.48;16.85;;;;;;;6.18;66.71;100714.28;4950040;28;105972;-78
2022/03/16 04:09:02;;;;;;;20.73;16.83;;;;;;;6.16;66.83;100717.06;4950863;28;106474;-80
2022/03/16 04:11:27;;;;;;;20.38;16.60;;;;;;;6.15;67.29;100723.34;4951485;28;105814;-78
2022/03/16 04:13:53;;;;;;;25.45;19.02;;;;;;;6.16;67.54;100727.63;4950426;28;106194;-79
2022/03/16 04:16:18;;;;;;;27.30;18.77;;;;;;;6.20;67.49;100734.34;4950208;28;105887;-79
2022/03/16 04:18:43;;;;;;;25.80;20.20;;;;;;;6.24;67.58;100741.06;4950869;28;107725;-77
2022/03/16 04:21:09;;;;;;;24.17;18.67;;;;;;;6.28;67.82;100746.94;4950750;28;105972;-81
2022/03/16 04:23:34;;;;;;;25.83;17.63;;;;;;;6.29;67.62;100748.63;4950254;28;106231;-79
2022/03/16 04:25:59;;;;;;;28.35;19.35;;;;;;;6.30;67.67;100747.66;4949676;28;105777;-79
2022/03/16 04:28:25;;;;;;;24.27;18.17;;;;;;;6.32;67.77;100745.72;4950979;28;106493;-79
2022/03/16 04:30:51;;;;;;;25.60;19.40;;;;;;;6.38;67.64;100754.94;4950480;28;105936;-81
2022/03/16 04:33:16;;;;;;;24.25;19.50;;;;;;;6.38;67.94;100763.75;4951258;28;106193;-81
2022/03/16 04:35:41;;;;;;;21.50;17.75;;;;;;;6.42;68.10;100767.81;4950608;28;105955;-79
2022/03/16 04:38:08;;;;;;;24.58;18.50;;;;;;;6.46;68.24;100764.91;4949912;28;106089;-78
2022/03/16 04:40:34;;;;;;;28.88;19.85;;;;;;;6.48;68.37;100769.09;4950690;28;106159;-82
2022/03/16 04:42:59;;;;;;;24.85;19.02;;;;;;;6.52;68.32;100769.66;4948238;28;106341;-80
2022/03/16 04:45:25;;;;;;;28.73;19.88;;;;;;;6.52;68.41;100770.50;4949682;28;105944;-79
2022/03/16 04:47:50;;;;;;;25.80;18.95;;;;;;;6.54;68.37;100780.97;4948812;28;106120;-80
2022/03/16 04:50:16;;;;;;;26.08;20.05;;;;;;;6.55;68.36;100787.94;4950765;28;105813;-82
2022/03/16 04:52:45;;;;;;;26.85;20.17;;;;;;;6.58;68.69;100792.97;4951559;28;105943;-79
2022/03/16 04:55:11;;;;;;;28.83;21.33;;;;;;;6.58;68.60;100790.34;4949901;28;106249;-78
2022/03/16 04:57:36;;;;;;;29.77;22.27;;;;;;;6.62;68.59;100805.00;4949957;28;106119;-78
2022/03/16 05:00:03;;;;;;;32.95;21.95;;;;;;;6.62;68.84;100791.75;4950244;28;106548;-77
2022/03/16 05:02:28;;;;;;;32.75;23.60;;;;;;;6.65;69.14;100796.78;4948940;28;106106;-72
2022/03/16 05:04:53;;;;;;;34.10;24.63;;;;;;;6.64;69.12;100800.38;4949106;28;105920;-78
2022/03/16 05:07:18;;;;;;;33.80;23.33;;;;;;;6.64;69.04;100797.75;4948457;28;121502;-74
2022/03/16 06:08:51;;;;;;;35.30;24.02;;;;;;;6.17;69.67;100855.47;4985665;28;106084;-78
2022/03/16 06:11:17;;;;;;;32.72;24.23;;;;;;;6.25;69.90;100853.03;4985392;28;106037;-75
2022/03/16 06:13:42;;;;;;;37.45;26.08;;;;;;;6.38;70.09;100864.31;4984401;28;106358;-77
2022/03/16 06:16:07;;;;;;;34.53;24.60;;;;;;;6.49;70.23;100868.69;4983507;28;107472;-75
2022/03/16 06:18:33;;;;;;;32.53;23.70;;;;;;;6.59;70.38;100871.44;4983727;28;119029;-76
2022/03/16 06:20:58;;;;;;;32.47;23.42;;;;;;;6.67;70.32;100871.63;4985142;28;105935;-77
2022/03/16 06:23:23;;;;;;;32.13;23.63;;;;;;;6.80;70.41;100870.59;4984526;28;106461;-77
2022/03/16 06:25:48;;;;;;;36.90;24.88;;;;;;;6.92;70.46;100865.09;4983873;28;106001;-74
2022/03/16 06:28:14;;;;;;;34.03;25.08;;;;;;;7.05;70.18;100872.88;4983620;28;115800;-74
2022/03/16 06:30:39;;;;;;;32.60;24.35;;;;;;;7.17;70.31;100876.25;4985018;28;105778;-81
2022/03/16 06:33:04;;;;;;;31.77;23.45;;;;;;;7.28;70.56;100875.34;4984271;28;105960;-77
2022/03/16 06:35:30;;;;;;;70.35;44.38;;;;;;;7.42;70.21;100879.44;4983906;28;105941;-81
2022/03/16 06:37:55;;;;;;;32.20;23.77;;;;;;;7.56;70.60;100888.84;4983907;28;105966;-76
2022/03/16 06:40:21;;;;;;;35.92;23.48;;;;;;;7.61;70.18;100894.59;4984522;28;106057;-78
2022/03/16 06:42:56;;;;;;;34.53;24.10;;;;;;;7.68;70.46;100903.72;4984220;28;106155;-78
2022/03/16 06:45:22;;;;;;;37.90;25.42;;;;;;;7.68;69.77;100906.38;4984055;28;106023;-78
2022/03/16 06:47:48;;;;;;;39.22;25.50;;;;;;;7.70;69.94;100909.72;4983822;28;106192;-78
2022/03/16 06:50:14;;;;;;;33.22;23.55;;;;;;;7.72;69.94;100926.34;4984199;28;106109;-78
2022/03/16 06:52:40;;;;;;;31.70;23.80;;;;;;;7.75;70.12;100914.59;4982279;28;106195;-78
2022/03/16 06:55:07;;;;;;;37.92;25.30;;;;;;;7.75;70.26;100928.72;4982546;28;106655;-78
2022/03/16 06:57:32;;;;;;;39.78;25.08;;;;;;;7.75;69.70;100930.53;4982969;28;105835;-77
2022/03/16 06:59:57;;;;;;;37.08;24.30;;;;;;;7.78;70.22;100931.09;4983266;28;105965;-78
2022/03/16 07:02:23;;;;;;;37.53;25.65;;;;;;;7.82;69.85;100936.13;4983259;28;106128;-80
2022/03/16 07:04:48;;;;;;;44.33;26.27;;;;;;;7.91;69.82;100946.81;4983794;28;105862;-80
2022/03/16 07:07:13;;;;;;;42.05;28.55;;;;;;;8.01;70.14;100952.13;4982504;28;113885;-79
2022/03/16 07:09:39;;;;;;;42.03;28.88;;;;;;;8.10;70.42;100953.97;4984114;28;106246;-80
2022/03/16 07:12:05;;;;;;;48.13;34.75;;;;;;;8.19;69.74;100956.78;4983852;28;105917;-77
2022/03/16 07:14:30;;;;;;;49.85;33.47;;;;;;;8.31;70.10;100961.03;4983181;28;108384;-77
2022/03/16 07:16:56;;;;;;;51.92;34.30;;;;;;;8.42;70.15;100955.59;4982751;28;106348;-76
2022/03/16 07:19:21;;;;;;;83.22;54.42;;;;;;;8.59;70.60;100954.09;4975423;28;106308;-76
2022/03/16 07:21:46;;;;;;;50.75;33.42;;;;;;;8.82;70.09;100959.16;4971129;28;106212;-78
2022/03/16 07:24:12;;;;;;;48.88;31.55;;;;;;;8.93;69.47;100955.50;4967889;28;108000;-81
2022/03/16 07:26:38;;;;;;;40.10;29.35;;;;;;;9.05;69.53;100962.34;4970271;28;106971;-80
2022/03/16 07:29:05;;;;;;;45.13;28.30;;;;;;;9.20;69.35;100972.53;4958950;28;106090;-80
2022/03/16 07:31:31;;;;;;;45.47;29.23;;;;;;;9.32;69.44;100971.38;4951440;28;106301;-81
2022/03/16 07:33:57;;;;;;;44.58;29.17;;;;;;;9.38;68.58;100981.47;4950724;28;105861;-85
2022/03/16 07:36:22;;;;;;;49.80;30.42;;;;;;;9.47;68.94;100979.75;4950094;28;106060;-74
2022/03/16 07:38:47;;;;;;;64.07;42.20;;;;;;;9.62;68.85;100977.47;4951008;28;105905;-74
2022/03/16 08:59:47;;;;;;;36.40;25.85;;;;;;;29.12;33.07;101042.97;5006898;28;105905;-78
2022/03/16 09:02:12;;;;;;;34.03;26.08;;;;;;;29.52;31.82;101044.03;5004834;28;105940;-80
2022/03/16 09:04:37;;;;;;;40.17;26.48;;;;;;;30.09;30.62;101043.94;5004298;28;106217;-76
2022/03/16 09:07:03;;;;;;;45.50;27.30;;;;;;;30.50;28.92;101052.00;5003818;28;106249;-75
2022/03/16 09:09:29;;;;;;;36.25;26.58;;;;;;;30.98;27.62;101054.97;5003056;28;106457;-80
2022/03/16 09:11:54;;;;;;;35.50;27.48;;;;;;;31.87;26.67;101055.81;5003763;28;106427;-77
2022/03/16 09:14:20;;;;;;;35.80;28.08;;;;;;;32.68;25.23;101061.41;5003746;28;106103;-73
2022/03/16 09:16:45;;;;;;;34.00;26.58;;;;;;;33.56;23.73;101062.78;5003184;28;106771;-72
2022/03/16 09:19:15;;;;;;;31.52;25.17;;;;;;;34.03;22.89;101065.47;5003438;28;106298;-72
2022/03/16 09:21:43;;;;;;;29.17;24.95;;;;;;;33.79;22.29;101069.28;5004727;28;106233;-79
2022/03/16 09:24:09;;;;;;;32.67;25.25;;;;;;;34.21;21.46;101069.22;5003828;28;106276;-77
2022/03/16 09:26:35;;;;;;;27.42;23.63;;;;;;;34.47;21.07;101068.72;5003962;28;106780;-75
2022/03/16 09:29:00;;;;;;;32.05;25.30;;;;;;;34.58;20.10;101067.34;5003391;28;106366;-71
2022/03/16 09:31:26;;;;;;;29.92;24.05;;;;;;;34.64;19.81;101074.41;5003775;28;105956;-69
2022/03/16 09:33:51;;;;;;;30.50;25.33;;;;;;;35.01;19.27;101068.88;5004482;28;106231;-73
2022/03/16 09:36:17;;;;;;;33.00;25.45;;;;;;;35.58;18.60;101074.59;5003302;28;105995;-73
2022/03/16 09:38:42;;;;;;;29.45;25.40;;;;;;;36.83;17.53;101077.38;5003711;28;106279;-75
2022/03/16 09:41:08;;;;;;;30.10;24.33;;;;;;;37.65;16.38;101077.38;5004486;28;106363;-72
2022/03/16 09:43:38;;;;;;;26.42;23.67;;;;;;;38.35;16.32;101085.38;5004080;28;106155;-75
2022/03/16 09:46:10;;;;;;;;;;;;;;;38.81;15.54;101079.16;5003929;28;105908;-73
2022/03/16 09:48:38;;;;;;;26.48;21.52;;;;;;;39.62;15.28;101079.66;5004656;28;105892;-73
2022/03/16 09:51:04;;;;;;;26.10;21.60;;;;;;;40.18;14.31;101083.84;5004203;28;105920;-74
2022/03/16 09:53:30;;;;;;;28.33;21.52;;;;;;;39.93;14.14;101092.22;5003722;28;106105;-76
2022/03/16 09:55:56;;;;;;;23.15;20.73;;;;;;;39.77;14.31;101095.69;5001974;28;106316;-72
2022/03/16 09:58:22;;;;;;;25.13;22.52;;;;;;;40.36;13.51;101106.72;5002879;28;105900;-75
2022/03/16 10:00:48;;;;;;;26.20;23.30;;;;;;;40.92;12.94;101101.19;5003745;28;106344;-74
2022/03/16 10:03:15;;;;;;;23.67;21.27;;;;;;;41.15;12.63;101108.22;5003336;28;106125;-76
2022/03/16 10:05:41;;;;;;;26.38;22.95;;;;;;;41.64;12.24;101102.34;5003020;28;106768;-74
2022/03/16 10:08:08;;;;;;;24.60;22.02;;;;;;;41.67;11.85;101101.63;5002727;28;106045;-72
2022/03/16 10:13:24;;;;;;;23.63;21.20;;;;;;;40.70;12.24;101108.16;4990419;28;105943;-69
2022/03/16 10:16:07;;;;;;;24.40;21.35;;;;;;;39.82;12.85;101105.81;4989632;28;106179;-77
2022/03/16 10:18:35;;;;;;;22.33;19.67;;;;;;;40.02;12.45;101118.00;4990101;28;106065;-70
2022/03/16 10:21:00;;;;;;;26.48;21.13;;;;;;;41.19;11.75;101107.16;4990399;28;105838;-76
2022/03/16 10:23:28;;;;;;;24.70;20.13;;;;;;;41.49;11.46;101112.34;4990129;28;106241;-78
2022/03/16 10:25:55;;;;;;;21.55;19.52;;;;;;;42.00;11.10;101113.63;4989757;28;107468;-71
2022/03/16 10:28:26;;;;;;;28.85;20.08;;;;;;;42.13;10.68;101117.09;4989825;28;106700;-69
2022/03/16 10:31:00;;;;;;;22.40;20.05;;;;;;;42.72;10.45;101124.47;4990250;28;105847;-68
2022/03/16 10:33:34;;;;;;;24.45;20.85;;;;;;;43.50;9.72;101128.38;4990118;28;105948;-71
2022/03/16 10:36:07;;;;;;;28.60;21.42;;;;;;;43.47;9.66;101123.50;4989075;28;106579;-70
2022/03/16 10:38:41;;;;;;;26.90;20.52;;;;;;;43.48;9.77;101131.53;4989309;28;105996;-73
2022/03/16 10:46:34;;;;;;;19.88;17.95;;;;;;;43.58;9.76;101132.91;4990001;28;106211;-77
2022/03/16 10:46:46;;;;;;;21.02;18.75;;;;;;;43.53;9.60;101125.63;4989401;28;106051;-76
2022/03/16 10:49:15;;;;;;;22.75;17.95;;;;;;;44.11;9.26;101127.38;4988305;28;106070;-74
2022/03/16 10:51:42;;;;;;;20.15;17.20;;;;;;;45.16;8.58;101139.19;4989380;28;106048;-74
2022/03/16 10:54:08;;;;;;;18.30;16.02;;;;;;;45.92;8.09;101135.09;4989117;28;106260;-78
2022/03/16 10:56:36;;;;;;;19.02;17.17;;;;;;;46.43;7.81;101130.56;4989169;28;106826;-73
2022/03/16 10:59:02;;;;;;;19.63;17.73;;;;;;;46.80;7.63;101140.81;4988513;28;106339;-71
2022/03/16 11:01:28;;;;;;;20.20;17.88;;;;;;;47.36;7.40;101132.88;4990020;28;105902;-69
2022/03/16 11:03:58;;;;;;;19.63;17.45;;;;;;;47.23;7.42;101131.66;4989526;28;106176;-69
2022/03/16 11:06:24;;;;;;;21.50;16.15;;;;;;;46.65;7.26;101131.50;4988840;28;106628;-77
2022/03/16 11:08:50;;;;;;;16.35;14.65;;;;;;;45.69;6.88;101126.84;4989328;28;106050;-71
2022/03/16 11:14:03;;;;;;;17.95;16.02;;;;;;;45.44;7.19;101139.47;4986877;28;106257;-75
2022/03/16 11:16:30;;;;;;;19.73;17.52;;;;;;;46.05;7.34;101132.75;4989439;28;106572;-71
2022/03/16 11:18:58;;;;;;;22.15;18.50;;;;;;;46.40;7.02;101134.19;4989235;28;106109;-74
2022/03/16 11:21:37;;;;;;;19.58;17.65;;;;;;;46.25;7.32;101136.13;4988566;28;106018;-71
2022/03/16 11:24:16;;;;;;;20.48;17.83;;;;;;;45.04;7.64;101138.22;4987750;28;106261;-70
2022/03/16 11:27:10;;;;;;;20.83;18.65;;;;;;;45.38;7.54;101140.22;4989114;28;106971;-71
2022/03/16 11:30:06;;;;;;;19.70;17.67;;;;;;;46.21;6.80;101135.25;4988763;28;106240;-71
2022/03/16 11:32:40;;;;;;;18.58;16.67;;;;;;;46.65;6.76;101141.97;4989258;28;106077;-71
2022/03/16 11:35:09;;;;;;;17.13;15.32;;;;;;;46.50;6.61;101144.69;4989441;28;106082;-69
2022/03/16 11:37:39;;;;;;;;;;;;;;;46.48;6.13;101141.47;4987744;28;106145;-72
2022/03/16 11:40:12;;;;;;;22.85;14.80;;;;;;;46.55;6.67;101137.88;4988587;28;105985;-71
2022/03/16 11:42:57;;;;;;;15.55;14.05;;;;;;;46.74;6.43;101140.38;4989390;28;105916;-76
2022/03/16 11:45:37;;;;;;;16.55;14.80;;;;;;;43.58;7.55;101138.53;4988641;28;106065;-72
2022/03/16 11:48:34;;;;;;;15.00;13.50;;;;;;;40.87;8.80;101148.13;4988578;28;105852;-69
2022/03/16 11:51:08;;;;;;;15.55;13.95;;;;;;;41.59;8.61;101136.16;4988174;28;106236;-71
2022/03/16 11:53:46;;;;;;;16.17;13.43;;;;;;;42.34;7.96;101145.63;4988430;28;105886;-71
2022/03/16 11:56:20;;;;;;;16.95;14.38;;;;;;;43.75;7.25;101132.41;4988172;28;106214;-76
2022/03/16 11:58:51;;;;;;;15.82;14.25;;;;;;;43.07;7.61;101140.38;4987423;28;106158;-68
2022/03/16 12:01:39;;;;;;;17.23;15.35;;;;;;;40.44;8.34;101137.28;4987682;28;106032;-69
2022/03/16 12:04:11;;;;;;;17.23;15.43;;;;;;;36.84;10.45;101142.84;4988846;28;106660;-71
2022/03/16 12:07:02;;;;;;;20.27;16.08;;;;;;;33.87;11.81;101139.56;4988422;28;106308;-72
2022/03/16 12:09:49;;;;;;;18.25;16.30;;;;;;;31.26;13.61;101131.56;4988193;28;105995;-75
2022/03/16 12:15:12;;;;;;;19.05;17.15;;;;;;;26.88;16.60;101133.38;4989129;28;105928;-71
2022/03/16 12:17:39;;;;;;;22.30;17.90;;;;;;;25.47;17.60;101146.13;4988332;28;106196;-70
2022/03/16 12:20:12;;;;;;;22.08;18.13;;;;;;;24.12;18.83;101143.66;4987920;28;107798;-75
2022/03/16 12:22:48;;;;;;;26.58;17.00;;;;;;;22.98;19.86;101148.13;4987721;28;106660;-70
2022/03/16 12:25:26;;;;;;;17.02;15.05;;;;;;;21.98;20.86;101145.47;4988324;28;105813;-75
2022/03/16 12:31:05;;;;;;;21.08;14.05;;;;;;;20.86;21.50;101151.41;4988527;28;106686;-76
2022/03/16 12:33:40;;;;;;;16.60;14.43;;;;;;;20.57;21.86;101148.16;4986690;28;107472;-73
2022/03/16 12:36:11;;;;;;;17.17;14.65;;;;;;;20.75;21.79;101152.06;4989027;28;105904;-70
2022/03/16 12:38:46;;;;;;;23.48;14.50;;;;;;;21.30;21.59;101144.28;4988376;28;106220;-68
2022/03/16 12:43:59;;;;;;;15.65;13.13;;;;;;;26.63;17.05;101149.19;4987286;28;106041;-72
2022/03/16 12:46:33;;;;;;;17.13;14.10;;;;;;;27.24;16.80;101148.22;4988834;28;106492;-79
2022/03/16 12:49:13;;;;;;;22.70;15.90;;;;;;;26.11;17.53;101146.88;4988316;28;106295;-71
2022/03/16 12:51:43;;;;;;;23.42;18.77;;;;;;;24.63;18.85;101161.16;4988377;28;106593;-78
2022/03/16 12:54:09;;;;;;;23.15;17.35;;;;;;;23.34;20.19;101159.16;4987493;28;106033;-73
2022/03/16 12:56:41;;;;;;;20.02;17.83;;;;;;;22.07;21.23;101158.75;4988358;28;105973;-73
2022/03/16 12:59:08;;;;;;;21.45;17.67;;;;;;;21.13;22.23;101168.38;4986786;28;106240;-69
2022/03/16 13:01:34;;;;;;;22.80;17.00;;;;;;;20.38;23.04;101173.38;4986129;28;105954;-76
2022/03/16 13:04:01;;;;;;;21.70;17.20;;;;;;;19.68;23.63;101165.72;4980123;28;106137;-74
2022/03/16 13:06:33;;;;;;;22.02;17.52;;;;;;;19.16;24.24;101168.94;4982663;28;105920;-72
2022/03/16 13:08:59;;;;;;;22.48;18.02;;;;;;;18.71;24.85;101171.22;4987770;28;106007;-73
2022/03/16 13:11:28;;;;;;;25.13;18.15;;;;;;;18.32;25.18;101167.28;4987015;28;106026;-72
2022/03/16 13:14:23;;;;;;;23.57;18.83;;;;;;;18.06;25.77;101174.16;4987184;28;105883;-73
2022/03/16 13:16:55;;;;;;;27.15;19.15;;;;;;;17.80;26.05;101177.41;4985096;28;106333;-71
2022/03/16 13:19:26;;;;;;;24.10;19.92;;;;;;;17.61;26.15;101170.84;4975409;28;106299;-70
2022/03/16 13:22:09;;;;;;;24.55;19.88;;;;;;;17.47;26.40;101169.84;4975926;28;105804;-74
2022/03/16 13:24:57;;;;;;;25.70;19.52;;;;;;;17.40;26.85;101180.56;4978775;28;106361;-75
2022/03/16 13:27:38;;;;;;;25.25;19.55;;;;;;;17.46;26.73;101169.03;4987457;28;105789;-73
2022/03/16 13:30:09;;;;;;;29.40;21.23;;;;;;;17.28;27.09;101182.09;4973511;28;106350;-76
2022/03/16 13:32:37;;;;;;;26.23;19.55;;;;;;;17.09;27.34;101184.38;4975645;28;106118;-76
2022/03/16 13:35:09;;;;;;;27.80;20.65;;;;;;;17.03;27.21;101190.50;4975937;28;106321;-72
2022/03/16 13:37:35;;;;;;;27.58;20.95;;;;;;;16.84;28.10;101186.50;4976680;28;106396;-76
2022/03/16 13:40:09;;;;;;;27.52;20.90;;;;;;;16.65;28.27;101198.66;4976591;28;105897;-71
2022/03/16 13:42:36;;;;;;;26.95;21.33;;;;;;;16.50;28.39;101196.81;4975799;28;106583;-71
2022/03/16 13:45:53;;;;;;;32.38;24.67;;;;;;;16.27;28.98;101199.59;4977162;28;106265;-74